Terminal Aerodrome Forecast
Issued by NWS

Home | Current Version | Previous Version | Graphics & Text | Print | Product List | Glossary On
Versions: 1 2 3 4 5 6 7 8 9 10 11 12 13 14
000
FTUS45 KGGW 292300
TAFGDV
TAF
KGDV 292320Z 3000/3024 29010KT P6SM FEW060 FEW120
     FM300800 32009KT 6SM BR BKN009 BKN025
      TEMPO 3012/3015 BKN004
     FM301500 36007KT P6SM FEW010 SCT080
      AMD LTD TO CLD VIS AND WIND=

USA.gov is the U.S. government's official web portal to all federal, state and local government web resources and services.